Time;durP1;ratioP1;P1;durP2;ratioP2;P2;SDS_P1;SDS_P2;PMS_P1;PMS_P2;Temp;Humidity;BMP_temperature;BMP_pressure;BME280_temperature;BME280_humidity;BME280_pressure;Samples;Min_cycle;Max_cycle;Signal;HPM_P1;HPM_P2
2022/08/13 00:02:17;;;;;;;7.00;5.53;;;25.20;44.60;;;;;;5025024;28;20025;-87
2022/08/13 00:07:22;;;;;;;5.80;5.30;;;25.10;44.70;;;;;;5012363;28;20125;-88
2022/08/13 00:09:49;;;;;;;5.78;5.38;;;25.10;44.70;;;;;;4995292;28;20037;-88
2022/08/13 00:15:11;;;;;;;6.03;5.53;;;25.00;44.80;;;;;;5016650;28;20060;-88
2022/08/13 00:17:37;;;;;;;5.43;4.78;;;25.00;44.80;;;;;;5030262;28;20029;-87
2022/08/13 00:20:06;;;;;;;6.10;4.70;;;25.00;44.80;;;;;;5010176;28;20079;-89
2022/08/13 00:22:33;;;;;;;6.40;5.28;;;25.00;44.80;;;;;;5010900;28;20141;-88
2022/08/13 00:25:03;;;;;;;6.00;4.70;;;24.90;45.30;;;;;;5031669;28;20052;-87
2022/08/13 00:27:29;;;;;;;6.03;5.22;;;24.90;44.80;;;;;;5031640;28;20044;-88
2022/08/13 00:29:56;;;;;;;5.38;4.88;;;24.90;44.80;;;;;;5038327;28;20079;-88
2022/08/13 00:32:26;;;;;;;5.63;5.13;;;24.80;44.60;;;;;;5048169;28;20123;-91
2022/08/13 00:34:52;;;;;;;5.28;4.82;;;24.80;45.30;;;;;;5004224;28;20080;-88
2022/08/13 00:37:18;;;;;;;5.78;4.70;;;24.80;44.70;;;;;;5043218;28;20525;-88
2022/08/13 00:39:45;;;;;;;5.03;4.63;;;24.70;44.60;;;;;;5025196;28;20033;-86
2022/08/13 00:42:11;;;;;;;6.13;4.75;;;24.70;44.70;;;;;;5009558;28;20096;-89
2022/08/13 00:44:40;;;;;;;5.38;4.70;;;24.70;44.70;;;;;;4994103;28;20060;-87
2022/08/13 00:49:51;;;;;;;6.18;4.88;;;24.60;44.60;;;;;;5015146;28;20029;-86
2022/08/13 00:52:17;;;;;;;5.80;4.88;;;24.60;44.60;;;;;;4996506;28;20041;-86
2022/08/13 00:54:43;;;;;;;4.32;3.92;;;24.60;44.60;;;;;;5036606;28;20036;-88
2022/08/13 00:57:12;;;;;;;5.30;4.40;;;24.50;44.50;;;;;;4992646;28;20132;-85
2022/08/13 00:59:38;;;;;;;5.40;4.57;;;24.50;44.60;;;;;;4990802;28;20124;-87
2022/08/13 01:02:04;;;;;;;5.65;5.15;;;24.50;44.60;;;;;;5003995;28;20030;-85
2022/08/13 01:04:32;;;;;;;6.07;4.70;;;24.40;44.40;;;;;;5005226;28;20073;-84
2022/08/13 01:07:01;;;;;;;4.45;4.13;;;24.40;44.40;;;;;;5004652;28;20026;-86
2022/08/13 01:09:31;;;;;;;4.22;3.90;;;24.40;44.50;;;;;;5000698;28;20064;-85
2022/08/13 01:12:01;;;;;;;4.95;4.45;;;24.40;44.50;;;;;;5005011;28;20049;-84
2022/08/13 01:14:32;;;;;;;6.18;4.20;;;24.40;44.50;;;;;;5007351;28;20087;-85
2022/08/13 01:17:02;;;;;;;4.40;4.00;;;24.30;44.30;;;;;;5006304;28;20441;-86
2022/08/13 01:19:31;;;;;;;4.97;4.35;;;24.30;44.30;;;;;;5010253;28;20055;-84
2022/08/13 01:22:00;;;;;;;4.22;3.92;;;24.30;44.30;;;;;;5005169;28;20315;-85
2022/08/13 01:24:28;;;;;;;4.40;4.10;;;24.20;44.20;;;;;;5012099;28;20038;-86
2022/08/13 01:26:58;;;;;;;6.13;4.22;;;24.20;44.20;;;;;;5006991;28;20045;-85
2022/08/13 01:29:25;;;;;;;4.13;3.60;;;24.20;44.20;;;;;;5005999;28;20509;-85
2022/08/13 01:31:52;;;;;;;5.40;4.20;;;24.20;44.20;;;;;;5020802;28;20053;-84
2022/08/13 01:34:22;;;;;;;3.75;3.42;;;24.10;44.10;;;;;;5005196;28;20034;-86
2022/08/13 01:36:49;;;;;;;4.07;3.78;;;24.10;44.20;;;;;;5006826;28;20040;-85
2022/08/13 01:39:16;;;;;;;4.03;3.63;;;24.10;44.20;;;;;;5003915;28;20034;-85
2022/08/13 01:41:42;;;;;;;4.03;3.70;;;24.00;44.10;;;;;;4989829;28;20173;-85
2022/08/13 01:44:08;;;;;;;4.25;3.80;;;24.00;44.10;;;;;;4986841;28;20045;-85
2022/08/13 01:52:08;;;;;;;4.70;3.28;;;23.90;44.10;;;;;;5007187;28;20049;-85
2022/08/13 01:54:36;;;;;;;4.45;3.50;;;23.80;43.90;;;;;;5007995;28;20026;-83
2022/08/13 01:57:04;;;;;;;5.15;3.65;;;23.80;44.00;;;;;;5007810;28;20476;-86
2022/08/13 01:59:34;;;;;;;4.13;3.83;;;23.70;43.80;;;;;;5008626;28;20034;-85
2022/08/13 02:02:01;;;;;;;3.92;3.58;;;23.70;43.90;;;;;;4989646;28;20444;-85
2022/08/13 02:04:29;;;;;;;4.15;3.70;;;23.70;43.90;;;;;;4992351;28;20520;-85
2022/08/13 02:06:59;;;;;;;4.72;3.15;;;23.70;44.00;;;;;;5024801;28;20034;-86
2022/08/13 02:09:27;;;;;;;3.72;3.33;;;23.60;43.90;;;;;;4995355;28;20493;-86
2022/08/13 02:11:53;;;;;;;3.70;3.38;;;23.60;44.00;;;;;;4992941;28;20041;-86
2022/08/13 02:14:21;;;;;;;3.10;2.90;;;23.50;43.80;;;;;;5011231;28;20034;-85
2022/08/13 02:16:47;;;;;;;3.80;3.50;;;23.50;43.90;;;;;;5013788;28;20121;-84
2022/08/13 02:19:13;;;;;;;3.50;3.20;;;23.50;44.00;;;;;;5005400;28;20045;-86
2022/08/13 02:21:44;;;;;;;4.55;4.15;;;23.40;43.80;;;;;;5031928;28;20499;-86
2022/08/13 02:24:14;;;;;;;3.83;3.33;;;23.40;43.90;;;;;;5015358;28;20089;-86
2022/08/13 02:26:42;;;;;;;3.95;3.47;;;23.30;43.80;;;;;;5017693;28;20125;-86
2022/08/13 02:29:12;;;;;;;3.63;3.33;;;23.30;43.80;;;;;;5019400;28;20010;-85
2022/08/13 02:31:42;;;;;;;3.95;3.20;;;23.20;43.70;;;;;;4994438;28;20042;-84
2022/08/13 02:34:10;;;;;;;4.75;3.63;;;23.20;43.80;;;;;;4996296;28;20030;-82
2022/08/13 02:36:39;;;;;;;5.40;3.80;;;23.20;43.90;;;;;;4993136;28;20041;-84
2022/08/13 02:39:06;;;;;;;3.70;3.40;;;23.10;43.70;;;;;;5008919;28;20025;-83
2022/08/13 02:41:39;;;;;;;4.05;3.67;;;23.10;43.80;;;;;;5008836;28;20038;-84
2022/08/13 02:44:13;;;;;;;3.55;3.20;;;23.10;43.90;;;;;;5008745;28;20022;-84
2022/08/13 02:46:48;;;;;;;3.58;3.20;;;23.10;44.00;;;;;;5009888;28;20033;-84
2022/08/13 02:49:14;;;;;;;5.90;4.35;;;23.00;43.90;;;;;;5008990;28;20029;-85
2022/08/13 02:51:40;;;;;;;4.35;3.92;;;22.90;43.70;;;;;;4991922;28;20457;-84
2022/08/13 02:54:06;;;;;;;3.70;3.40;;;22.90;43.70;;;;;;4992535;28;20052;-85
2022/08/13 02:56:36;;;;;;;4.15;3.22;;;22.90;43.90;;;;;;4996012;28;20053;-85
2022/08/13 02:59:03;;;;;;;4.38;3.20;;;22.80;43.70;;;;;;4994251;28;20033;-86
2022/08/13 03:01:30;;;;;;;4.63;3.30;;;22.80;43.80;;;;;;5019059;28;20994;-85
2022/08/13 03:03:56;;;;;;;5.45;3.80;;;22.80;43.90;;;;;;5014043;28;20109;-85
2022/08/13 03:06:23;;;;;;;4.22;3.92;;;22.80;44.00;;;;;;5033590;28;20026;-85
2022/08/13 03:08:52;;;;;;;5.35;4.50;;;22.70;43.90;;;;;;4995036;28;20017;-87
2022/08/13 03:11:19;;;;;;;4.75;4.13;;;22.70;43.90;;;;;;5018157;28;20055;-84
2022/08/13 03:13:56;;;;;;;4.47;4.00;;;22.60;43.80;;;;;;5017150;28;20030;-83
2022/08/13 03:16:26;;;;;;;3.78;3.42;;;22.60;44.00;;;;;;5014830;28;20105;-82
2022/08/13 03:18:53;;;;;;;4.03;3.55;;;22.60;44.00;;;;;;5031047;28;20179;-86
2022/08/13 03:21:25;;;;;;;4.35;3.65;;;22.50;43.90;;;;;;5014754;28;20072;-85
2022/08/13 03:23:51;;;;;;;3.97;3.67;;;22.50;44.00;;;;;;5015054;28;20356;-85
2022/08/13 03:26:21;;;;;;;3.55;3.25;;;22.50;44.00;;;;;;5031166;28;20030;-85
2022/08/13 03:28:51;;;;;;;4.20;3.80;;;22.40;44.00;;;;;;5013358;28;20063;-86
2022/08/13 03:31:20;;;;;;;6.53;4.40;;;22.40;44.70;;;;;;5016201;28;20088;-85
2022/08/13 03:33:47;;;;;;;4.38;3.97;;;22.30;43.90;;;;;;5022064;28;20021;-86
2022/08/13 03:36:13;;;;;;;4.72;4.32;;;22.30;44.00;;;;;;5018002;28;20340;-85
2022/08/13 03:38:40;;;;;;;5.25;4.75;;;22.30;44.00;;;;;;5018449;28;20022;-84
2022/08/13 03:41:12;;;;;;;7.22;4.00;;;22.30;44.10;;;;;;5031962;28;20029;-86
2022/08/13 03:43:43;;;;;;;4.60;3.72;;;22.20;43.90;;;;;;4998090;28;20077;-84
2022/08/13 03:46:11;;;;;;;5.53;4.43;;;22.20;44.00;;;;;;5000042;28;20040;-84
2022/08/13 03:48:38;;;;;;;4.93;4.28;;;22.20;44.00;;;;;;5016991;28;20022;-86
2022/08/13 03:51:08;;;;;;;3.95;3.60;;;22.20;44.10;;;;;;5004082;28;20045;-85
2022/08/13 03:53:35;;;;;;;4.50;3.63;;;22.10;44.00;;;;;;5026943;28;20032;-86
2022/08/13 03:56:03;;;;;;;5.32;4.43;;;22.10;44.10;;;;;;5014594;28;20369;-87
2022/08/13 03:58:30;;;;;;;4.78;4.20;;;22.10;44.10;;;;;;5028093;28;20254;-84
2022/08/13 04:00:57;;;;;;;4.45;4.05;;;22.00;44.00;;;;;;5027630;28;20022;-85
2022/08/13 04:03:36;;;;;;;4.03;3.53;;;22.00;44.10;;;;;;5001620;28;20614;-85
2022/08/13 04:06:16;;;;;;;4.45;4.03;;;22.00;44.20;;;;;;5012850;28;20037;-84
2022/08/13 04:08:44;;;;;;;4.10;3.70;;;22.00;44.20;;;;;;5014778;28;20440;-86
2022/08/13 04:11:14;;;;;;;4.22;3.78;;;22.00;44.20;;;;;;5012418;28;20187;-85
2022/08/13 04:13:40;;;;;;;5.00;3.88;;;21.90;44.10;;;;;;5012400;28;20503;-89
2022/08/13 04:16:14;;;;;;;3.75;3.40;;;21.90;44.20;;;;;;4995801;28;20214;-86
2022/08/13 04:18:41;;;;;;;5.47;4.40;;;21.90;44.30;;;;;;5005359;28;20415;-86
2022/08/13 04:21:09;;;;;;;4.38;3.97;;;21.90;44.40;;;;;;5012689;28;20691;-85
2022/08/13 04:23:43;;;;;;;3.92;3.60;;;21.90;44.40;;;;;;5011592;28;20022;-86
2022/08/13 04:26:11;;;;;;;4.25;3.85;;;21.80;44.30;;;;;;5019819;28;20257;-87
2022/08/13 04:28:41;;;;;;;3.28;3.05;;;21.70;44.20;;;;;;4994787;28;20475;-84
2022/08/13 04:31:12;;;;;;;5.25;4.03;;;21.70;44.30;;;;;;5012525;28;20419;-84
2022/08/13 04:33:39;;;;;;;4.00;3.30;;;21.70;44.40;;;;;;5003691;28;20026;-84
2022/08/13 04:36:06;;;;;;;4.22;3.83;;;21.70;44.50;;;;;;5010590;28;20026;-86
2022/08/13 04:38:33;;;;;;;4.22;3.85;;;21.60;44.30;;;;;;5029589;28;20030;-92
2022/08/13 04:41:01;;;;;;;4.40;3.92;;;21.60;45.00;;;;;;4999782;28;20075;-89
2022/08/13 04:43:28;;;;;;;3.90;3.50;;;21.60;44.50;;;;;;4999253;28;20094;-89
2022/08/13 04:45:58;;;;;;;4.43;3.60;;;21.50;44.30;;;;;;5028462;28;20017;-89
2022/08/13 04:48:24;;;;;;;6.53;4.00;;;21.50;44.40;;;;;;5014318;28;20029;-88
2022/08/13 04:50:52;;;;;;;5.55;3.80;;;21.50;44.50;;;;;;5014260;28;20055;-89
2022/08/13 04:53:26;;;;;;;3.95;3.20;;;21.50;44.50;;;;;;5026797;28;20428;-84
2022/08/13 04:55:53;;;;;;;3.35;3.05;;;21.50;44.60;;;;;;5030305;28;20386;-87
2022/08/13 04:58:21;;;;;;;3.60;3.10;;;21.50;44.70;;;;;;5000670;28;20114;-88
2022/08/13 05:00:48;;;;;;;4.03;3.70;;;21.40;44.50;;;;;;5013490;28;20400;-87
2022/08/13 05:03:17;;;;;;;2.97;2.78;;;21.40;44.50;;;;;;4999457;28;20025;-86
2022/08/13 05:05:46;;;;;;;4.30;3.20;;;21.40;44.60;;;;;;5014305;28;20108;-86
2022/08/13 05:08:15;;;;;;;4.13;3.70;;;21.40;44.60;;;;;;4994612;28;20029;-86
2022/08/13 05:10:42;;;;;;;3.65;3.35;;;21.40;44.70;;;;;;5012819;28;20037;-85
2022/08/13 05:13:30;;;;;;;4.70;3.42;;;21.40;44.70;;;;;;5015866;28;20033;-85
2022/08/13 05:16:02;;;;;;;3.72;3.42;;;21.40;44.90;;;;;;5017324;28;20381;-93
2022/08/13 05:18:32;;;;;;;4.63;3.22;;;21.40;44.80;;;;;;5016032;28;20463;-91
2022/08/13 05:21:00;;;;;;;3.53;3.22;;;21.40;44.80;;;;;;4961040;28;20041;-89
2022/08/13 05:23:27;;;;;;;6.55;3.90;;;21.40;44.90;;;;;;4997250;28;20034;-91
2022/08/13 05:25:53;;;;;;;3.80;3.42;;;21.40;44.90;;;;;;5034091;28;20033;-91
2022/08/13 05:28:20;;;;;;;4.70;4.10;;;21.40;44.90;;;;;;5011533;28;20045;-94
2022/08/13 05:30:49;;;;;;;4.82;3.20;;;21.40;45.00;;;;;;4998458;28;20056;-91
2022/08/13 05:33:18;;;;;;;4.78;3.47;;;21.40;45.00;;;;;;5016319;28;20025;-95
2022/08/13 05:35:49;;;;;;;4.53;3.63;;;21.40;45.00;;;;;;4992544;28;20108;-92
2022/08/13 05:38:16;;;;;;;3.50;3.20;;;21.40;45.10;;;;;;5013287;28;20456;-88
2022/08/13 05:40:43;;;;;;;4.20;3.03;;;21.40;45.00;;;;;;5001803;28;20033;-93
2022/08/13 05:43:15;;;;;;;4.43;3.38;;;21.40;45.10;;;;;;5035359;28;20029;-87
2022/08/13 05:45:43;;;;;;;6.25;3.75;;;21.40;45.10;;;;;;5021858;28;20123;-89
2022/08/13 05:48:09;;;;;;;5.15;3.55;;;21.50;45.40;;;;;;5030427;28;20083;-86
2022/08/13 05:50:37;;;;;;;5.90;3.40;;;21.50;45.50;;;;;;5019880;28;20045;-87
2022/08/13 05:53:09;;;;;;;6.78;4.00;;;21.50;45.60;;;;;;5039228;28;20049;-84
2022/08/13 05:55:37;;;;;;;5.38;3.90;;;21.50;45.90;;;;;;5042086;28;20044;-86
2022/08/13 05:58:04;;;;;;;6.38;3.63;;;21.60;46.20;;;;;;5038445;28;20122;-88
2022/08/13 06:03:27;;;;;;;6.90;3.53;;;21.60;46.30;;;;;;5046679;28;20083;-86
2022/08/13 06:06:02;;;;;;;7.22;3.55;;;21.70;46.50;;;;;;4997091;28;20035;-89
2022/08/13 06:08:37;;;;;;;4.88;3.60;;;21.80;46.80;;;;;;5033859;28;20073;-89
2022/08/13 06:11:06;;;;;;;7.07;3.33;;;21.90;47.00;;;;;;5032570;28;20029;-89
2022/08/13 06:13:36;;;;;;;8.60;3.58;;;22.00;47.10;;;;;;5024883;28;20357;-91
2022/08/13 06:16:03;;;;;;;3.78;3.15;;;22.20;47.40;;;;;;5030371;28;20412;-91
2022/08/13 06:18:35;;;;;;;9.10;4.18;;;22.40;47.60;;;;;;5003060;28;20071;-85
2022/08/13 06:21:04;;;;;;;5.57;3.50;;;22.50;47.70;;;;;;5021500;28;20025;-83
2022/08/13 06:23:32;;;;;;;3.90;3.47;;;22.80;47.90;;;;;;4997598;28;20026;-84
2022/08/13 06:25:59;;;;;;;5.95;4.00;;;23.00;48.00;;;;;;5013005;28;20308;-82
2022/08/13 06:28:29;;;;;;;5.70;3.17;;;23.30;48.20;;;;;;5018291;28;20504;-83
2022/08/13 06:31:07;;;;;;;8.20;3.67;;;23.50;48.30;;;;;;5020091;28;20041;-83
2022/08/13 06:33:35;;;;;;;10.85;4.38;;;23.70;48.40;;;;;;5010215;28;20030;-83
2022/08/13 06:36:05;;;;;;;10.95;4.53;;;24.00;48.50;;;;;;5028745;28;20027;-84
2022/08/13 06:38:42;;;;;;;10.50;4.85;;;24.20;48.50;;;;;;4993434;28;20029;-82
2022/08/13 06:41:10;;;;;;;3.55;3.22;;;24.40;48.60;;;;;;4977887;28;20266;-82
2022/08/13 06:43:44;;;;;;;4.13;3.38;;;24.70;48.60;;;;;;4997523;28;20033;-82
2022/08/13 06:46:12;;;;;;;5.78;3.42;;;24.90;48.60;;;;;;5017751;28;20036;-81
2022/08/13 06:48:42;;;;;;;3.22;2.92;;;25.20;48.50;;;;;;5000604;28;20028;-87
2022/08/13 06:51:11;;;;;;;5.95;3.13;;;25.40;48.30;;;;;;4978190;28;20037;-83
2022/08/13 06:53:41;;;;;;;5.50;3.72;;;25.60;48.10;;;;;;5015770;28;20039;-83
2022/08/13 06:56:18;;;;;;;6.20;3.28;;;25.90;47.90;;;;;;4983455;28;20037;-86
2022/08/13 06:58:47;;;;;;;5.15;3.20;;;26.20;47.60;;;;;;5030217;28;20029;-85
2022/08/13 07:01:19;;;;;;;5.63;3.33;;;26.50;47.10;;;;;;5012345;28;20029;-83
2022/08/13 07:03:47;;;;;;;5.13;2.95;;;26.80;47.40;;;;;;4974325;28;20393;-85
2022/08/13 07:06:22;;;;;;;5.00;3.33;;;27.10;46.40;;;;;;5001850;28;20689;-84
2022/08/13 07:08:48;;;;;;;6.43;4.47;;;27.30;46.10;;;;;;5029573;28;20310;-84
2022/08/13 07:11:22;;;;;;;4.80;3.95;;;27.50;45.90;;;;;;5017284;28;20038;-86
2022/08/13 07:14:00;;;;;;;4.05;3.65;;;27.80;45.90;;;;;;5010272;28;20065;-83
2022/08/13 07:16:32;;;;;;;6.05;3.35;;;27.90;45.40;;;;;;5019311;28;20044;-81
2022/08/13 07:19:00;;;;;;;10.48;3.67;;;28.10;45.30;;;;;;5017800;28;20030;-88
2022/08/13 07:21:28;;;;;;;7.57;3.10;;;28.20;45.00;;;;;;5020923;28;20052;-88
2022/08/13 07:23:55;;;;;;;5.00;3.30;;;28.50;44.70;;;;;;5030110;28;20029;-87
2022/08/13 07:26:27;;;;;;;7.25;3.75;;;28.70;44.30;;;;;;5010543;28;20033;-87
2022/08/13 07:28:54;;;;;;;;;;;29.00;44.00;;;;;;4978236;28;20143;-88
2022/08/13 07:31:25;;;;;;;5.93;3.38;;;29.20;43.70;;;;;;5029097;28;19921;-87
2022/08/13 07:33:53;;;;;;;3.72;3.42;;;29.40;43.50;;;;;;5015337;28;20026;-87
2022/08/13 07:36:20;;;;;;;9.57;3.72;;;29.50;43.20;;;;;;5008819;28;20044;-88
2022/08/13 07:38:48;;;;;;;6.50;3.72;;;29.70;43.00;;;;;;5030941;28;20114;-86
2022/08/13 07:41:14;;;;;;;5.03;3.42;;;29.70;42.90;;;;;;4992464;28;20021;-86
2022/08/13 07:43:44;;;;;;;8.88;3.50;;;29.70;42.90;;;;;;4996452;28;20036;-86
2022/08/13 07:46:15;;;;;;;7.72;3.53;;;29.70;42.90;;;;;;4996658;28;20034;-87
2022/08/13 07:48:47;;;;;;;4.18;3.13;;;29.50;43.00;;;;;;5009002;28;20094;-87
2022/08/13 07:51:19;;;;;;;4.28;2.83;;;29.50;43.10;;;;;;5027242;28;20056;-89
2022/08/13 07:53:47;;;;;;;9.05;3.70;;;29.40;43.10;;;;;;5011268;28;20051;-88
2022/08/13 07:56:29;;;;;;;8.20;4.13;;;29.40;43.20;;;;;;4999244;28;20527;-89
2022/08/13 07:59:00;;;;;;;7.22;3.95;;;29.30;43.20;;;;;;5008627;28;20068;-88
2022/08/13 08:01:30;;;;;;;7.85;4.30;;;29.20;43.80;;;;;;5012473;28;20045;-86
2022/08/13 08:04:02;;;;;;;4.82;3.75;;;29.10;43.30;;;;;;5012028;28;20038;-86
2022/08/13 08:06:29;;;;;;;4.35;3.67;;;29.00;43.20;;;;;;5019538;28;20067;-85
2022/08/13 08:08:56;;;;;;;4.00;3.05;;;29.00;43.30;;;;;;4996558;28;20036;-85
2022/08/13 08:14:10;;;;;;;9.65;3.30;;;29.00;43.00;;;;;;5019290;28;20022;-89
2022/08/13 08:16:36;;;;;;;6.28;3.38;;;29.20;42.70;;;;;;4998276;28;20051;-88
2022/08/13 08:19:03;;;;;;;6.85;3.65;;;29.20;42.40;;;;;;5011914;28;20633;-88
2022/08/13 08:21:31;;;;;;;7.75;3.55;;;29.30;42.20;;;;;;4993758;28;20021;-88
2022/08/13 08:24:00;;;;;;;10.13;4.28;;;29.30;42.30;;;;;;4997548;28;20052;-88
2022/08/13 08:26:29;;;;;;;6.80;4.00;;;29.10;42.50;;;;;;5031017;28;20067;-88
2022/08/13 08:28:57;;;;;;;6.65;3.50;;;28.90;43.50;;;;;;5016070;28;20029;-86
2022/08/13 08:31:24;;;;;;;5.78;3.90;;;28.70;43.20;;;;;;4986161;28;20125;-87
2022/08/13 08:33:54;;;;;;;4.53;3.35;;;28.50;43.40;;;;;;5001174;28;20026;-88
2022/08/13 08:36:20;;;;;;;6.07;3.47;;;28.30;43.70;;;;;;4998259;28;20090;-88
2022/08/13 08:44:30;;;;;;;6.63;3.60;;;28.10;44.40;;;;;;5036301;28;20029;-88
2022/08/13 08:46:57;;;;;;;6.10;3.05;;;28.00;44.60;;;;;;5003265;28;20447;-84
2022/08/13 08:49:24;;;;;;;6.18;3.30;;;27.90;44.60;;;;;;5020778;28;20037;-87
2022/08/13 08:51:51;;;;;;;8.23;4.38;;;27.80;44.80;;;;;;5012809;28;20307;-86
2022/08/13 08:54:18;;;;;;;4.20;3.30;;;27.90;45.00;;;;;;5037395;28;20832;-85
2022/08/13 08:56:49;;;;;;;5.00;3.75;;;27.80;45.10;;;;;;5017679;28;20135;-86
2022/08/13 08:59:16;;;;;;;5.47;3.80;;;27.80;45.10;;;;;;5015248;28;20776;-86
2022/08/13 09:01:44;;;;;;;7.10;3.63;;;27.80;45.10;;;;;;5004612;28;20052;-86
2022/08/13 09:04:12;;;;;;;3.83;3.40;;;27.80;45.20;;;;;;5017704;28;20037;-87
2022/08/13 09:06:38;;;;;;;3.40;2.85;;;27.80;45.20;;;;;;4994634;28;20029;-87
2022/08/13 09:09:07;;;;;;;4.72;3.40;;;27.90;45.30;;;;;;5028955;28;20033;-90
2022/08/13 09:11:36;;;;;;;7.25;3.97;;;27.90;45.30;;;;;;5019760;28;20336;-94
2022/08/13 09:14:08;;;;;;;6.90;3.47;;;27.90;45.20;;;;;;5017593;28;20515;-84
2022/08/13 09:16:38;;;;;;;4.60;3.80;;;28.00;45.20;;;;;;5017633;28;20336;-84
2022/08/13 09:19:13;;;;;;;5.30;4.20;;;28.10;45.20;;;;;;5022666;28;20034;-85
2022/08/13 09:21:46;;;;;;;8.27;3.40;;;28.10;45.10;;;;;;5016146;28;20051;-84
2022/08/13 09:24:15;;;;;;;7.20;3.58;;;28.20;45.10;;;;;;5021719;28;20045;-86
2022/08/13 09:26:47;;;;;;;5.32;3.33;;;28.20;45.70;;;;;;5009220;28;20060;-85
2022/08/13 09:29:15;;;;;;;5.85;3.30;;;28.30;45.00;;;;;;5025268;28;20063;-83
2022/08/13 09:31:44;;;;;;;3.50;3.17;;;28.30;45.00;;;;;;5008696;28;20060;-85
2022/08/13 09:34:11;;;;;;;5.55;3.63;;;28.30;45.00;;;;;;5017035;28;20022;-88
2022/08/13 09:36:40;;;;;;;5.70;3.60;;;28.40;45.00;;;;;;5009100;28;20417;-86
2022/08/13 09:39:06;;;;;;;6.88;3.80;;;28.50;45.10;;;;;;4994909;28;20035;-86
2022/08/13 09:41:49;;;;;;;8.95;4.00;;;28.50;45.10;;;;;;4991240;28;20029;-86
2022/08/13 09:44:17;;;;;;;6.97;3.67;;;28.60;45.20;;;;;;5024758;28;20029;-87
2022/08/13 09:46:43;;;;;;;6.90;3.67;;;28.70;45.10;;;;;;4997506;28;20032;-85
2022/08/13 09:49:11;;;;;;;4.75;3.70;;;28.80;45.10;;;;;;5024577;28;20036;-86
2022/08/13 09:51:37;;;;;;;5.43;3.25;;;28.80;44.90;;;;;;4993780;28;20119;-84
2022/08/13 09:54:10;;;;;;;6.05;3.80;;;28.90;44.80;;;;;;5008055;28;20036;-84
2022/08/13 09:56:37;;;;;;;4.65;3.63;;;28.90;44.70;;;;;;4993557;28;20056;-86
2022/08/13 09:59:05;;;;;;;7.13;3.50;;;29.00;44.80;;;;;;5012932;28;20125;-86
2022/08/13 10:01:34;;;;;;;6.43;4.07;;;29.10;44.70;;;;;;5011245;28;20036;-85
2022/08/13 10:04:01;;;;;;;6.40;3.30;;;29.10;44.50;;;;;;4996232;28;20036;-85
2022/08/13 10:06:28;;;;;;;6.32;3.95;;;29.20;44.60;;;;;;5009557;28;20053;-85
2022/08/13 10:09:01;;;;;;;6.22;3.22;;;29.20;44.50;;;;;;5014491;28;20564;-86
2022/08/13 10:11:27;;;;;;;;;;;29.30;44.50;;;;;;5006149;28;20042;-85
2022/08/13 10:13:56;;;;;;;4.88;3.28;;;29.40;44.40;;;;;;5016791;28;20261;-85
2022/08/13 10:16:22;;;;;;;7.78;3.97;;;29.40;44.30;;;;;;4996738;28;20032;-84
2022/08/13 10:18:48;;;;;;;5.40;3.47;;;29.50;44.30;;;;;;4995264;28;20465;-81
2022/08/13 10:21:15;;;;;;;6.75;3.55;;;29.60;44.30;;;;;;4998297;28;20026;-85
2022/08/13 10:23:42;;;;;;;13.00;4.20;;;29.60;44.20;;;;;;5013858;28;20350;-85
2022/08/13 10:26:09;;;;;;;7.45;3.72;;;29.70;44.10;;;;;;5012992;28;20048;-91
2022/08/13 10:28:36;;;;;;;3.50;3.20;;;29.80;44.10;;;;;;5009255;28;20025;-87
2022/08/13 10:31:07;;;;;;;4.70;3.60;;;29.90;44.10;;;;;;5030160;28;20420;-88
2022/08/13 10:33:37;;;;;;;6.50;4.45;;;29.90;44.00;;;;;;4971206;28;20442;-85
2022/08/13 10:36:05;;;;;;;6.60;3.88;;;30.00;44.00;;;;;;5012981;28;20037;-89
2022/08/13 10:38:32;;;;;;;4.70;4.13;;;30.10;43.90;;;;;;5010859;28;20045;-85
2022/08/13 10:41:07;;;;;;;8.77;5.28;;;30.10;43.80;;;;;;5020115;28;20436;-83
2022/08/13 10:43:38;;;;;;;5.28;3.95;;;30.20;43.80;;;;;;5030046;28;20025;-84
2022/08/13 10:46:06;;;;;;;5.35;3.72;;;30.30;43.80;;;;;;4977660;28;20372;-83
2022/08/13 10:48:32;;;;;;;6.82;4.28;;;30.30;43.60;;;;;;4999157;28;20025;-87
2022/08/13 10:50:58;;;;;;;4.07;3.72;;;30.30;43.40;;;;;;5021274;28;20049;-81
2022/08/13 10:56:11;;;;;;;5.53;3.97;;;30.40;43.30;;;;;;5015896;28;20029;-85
2022/08/13 10:58:40;;;;;;;4.88;3.67;;;30.50;43.30;;;;;;5015170;28;20045;-85
2022/08/13 11:01:06;;;;;;;6.95;3.75;;;30.60;43.20;;;;;;4974167;28;20074;-86
2022/08/13 11:03:33;;;;;;;10.40;9.40;;;30.70;43.20;;;;;;5011879;28;20056;-85
2022/08/13 11:06:01;;;;;;;13.57;7.60;;;30.70;43.00;;;;;;4984592;28;20587;-90
2022/08/13 11:08:27;;;;;;;6.10;4.78;;;30.80;42.90;;;;;;5014415;28;20462;-90
2022/08/13 11:10:53;;;;;;;4.32;3.90;;;30.90;42.80;;;;;;4994799;28;20468;-91
2022/08/13 11:13:19;;;;;;;6.28;3.42;;;30.90;42.60;;;;;;5026174;28;20032;-94
2022/08/13 11:15:45;;;;;;;4.90;3.95;;;31.00;42.70;;;;;;5026096;28;20038;-87
2022/08/13 11:18:11;;;;;;;4.53;3.28;;;31.00;42.60;;;;;;5010785;28;20040;-87
2022/08/13 11:21:02;;;;;;;5.78;3.88;;;31.10;42.60;;;;;;5019161;28;20021;-84
2022/08/13 11:23:24;;;;;;;4.00;3.58;;;31.20;42.50;;;;;;5024620;28;20034;-87
2022/08/13 11:25:51;;;;;;;8.35;4.57;;;31.20;42.30;;;;;;5017972;28;20218;-83
2022/08/13 11:28:17;;;;;;;8.45;3.85;;;31.30;42.30;;;;;;4993042;28;20384;-95
2022/08/13 11:30:43;;;;;;;5.38;3.85;;;31.40;42.20;;;;;;4996147;28;20021;-83
2022/08/13 11:33:09;;;;;;;4.90;3.58;;;31.50;42.20;;;;;;5014511;28;20044;-81
2022/08/13 11:35:35;;;;;;;4.88;3.30;;;31.70;42.30;;;;;;5000540;28;20037;-81
2022/08/13 11:38:09;;;;;;;3.67;3.10;;;31.80;42.20;;;;;;5011307;28;20025;-86
2022/08/13 11:40:37;;;;;;;7.32;3.58;;;32.00;42.00;;;;;;5032972;28;20033;-85
2022/08/13 11:43:03;;;;;;;4.55;3.95;;;32.10;41.80;;;;;;5014667;28;20049;-85
2022/08/13 11:45:29;;;;;;;7.45;4.40;;;32.20;41.60;;;;;;5016133;28;20441;-85
2022/08/13 11:47:55;;;;;;;8.55;4.25;;;32.30;41.30;;;;;;5012461;28;20063;-87
2022/08/13 11:50:21;;;;;;;7.60;3.47;;;32.30;41.00;;;;;;4982170;28;20030;-84
2022/08/13 11:52:50;;;;;;;6.82;3.88;;;32.40;40.80;;;;;;4995958;28;20110;-84
2022/08/13 11:55:16;;;;;;;9.95;4.28;;;32.50;40.60;;;;;;5026611;28;20021;-84
2022/08/13 11:57:42;;;;;;;5.30;3.50;;;32.50;40.30;;;;;;4999539;28;20053;-85
2022/08/13 12:00:08;;;;;;;5.18;3.10;;;32.60;40.10;;;;;;4996069;28;20040;-84
2022/08/13 12:02:34;;;;;;;6.13;3.03;;;32.70;39.70;;;;;;5032108;28;20038;-85
2022/08/13 12:05:00;;;;;;;3.92;2.92;;;32.80;39.20;;;;;;4991800;28;20060;-86
2022/08/13 12:07:26;;;;;;;3.95;3.33;;;32.80;38.80;;;;;;5014245;28;20037;-87
2022/08/13 12:09:56;;;;;;;3.13;2.72;;;32.90;38.40;;;;;;5004036;28;20060;-92
2022/08/13 12:12:22;;;;;;;6.22;2.88;;;33.00;37.90;;;;;;5018504;28;20045;-94
2022/08/13 12:14:49;;;;;;;3.35;3.05;;;33.20;37.60;;;;;;5020480;28;20108;-96
2022/08/13 12:17:15;;;;;;;2.95;2.75;;;33.30;37.20;;;;;;5016279;28;20034;-96
2022/08/13 12:19:41;;;;;;;6.47;2.80;;;33.40;36.80;;;;;;5014874;28;20124;-83
2022/08/13 12:22:07;;;;;;;8.75;2.88;;;33.50;36.30;;;;;;5016294;28;21325;-80
2022/08/13 12:24:34;;;;;;;4.75;2.95;;;33.60;36.20;;;;;;5013959;28;20026;-81
2022/08/13 12:27:00;;;;;;;7.47;3.45;;;33.70;36.40;;;;;;4997156;28;20037;-81
2022/08/13 12:29:26;;;;;;;3.33;3.03;;;33.70;36.40;;;;;;5022780;28;21133;-83
2022/08/13 12:31:52;;;;;;;5.35;3.20;;;33.70;36.00;;;;;;4991401;28;20041;-82
2022/08/13 12:34:18;;;;;;;7.20;3.20;;;33.80;35.70;;;;;;5007314;28;20089;-87
2022/08/13 12:36:44;;;;;;;4.70;3.13;;;33.80;35.60;;;;;;4996804;28;20033;-88
2022/08/13 12:39:10;;;;;;;7.68;3.15;;;33.90;35.70;;;;;;5015131;28;20029;-85
2022/08/13 12:41:36;;;;;;;3.35;2.85;;;34.00;35.70;;;;;;5026104;28;20684;-82
2022/08/13 12:44:03;;;;;;;6.40;3.30;;;34.00;35.50;;;;;;5028940;28;20037;-93
2022/08/13 12:46:29;;;;;;;6.38;3.20;;;34.10;35.20;;;;;;5019508;28;20485;-93
2022/08/13 12:48:55;;;;;;;5.60;3.05;;;34.10;35.00;;;;;;5012947;28;20067;-86
2022/08/13 12:51:21;;;;;;;5.10;3.20;;;34.10;35.00;;;;;;5026505;28;20241;-86
2022/08/13 12:53:47;;;;;;;7.95;3.00;;;34.20;34.90;;;;;;5020254;28;20040;-84
2022/08/13 12:56:12;;;;;;;4.22;3.58;;;34.20;34.40;;;;;;5029674;28;20033;-85
2022/08/13 12:58:38;;;;;;;3.80;2.72;;;34.20;34.10;;;;;;5035487;28;20017;-86
2022/08/13 13:01:04;;;;;;;6.47;3.30;;;34.30;34.70;;;;;;5018210;28;20032;-87
2022/08/13 13:03:31;;;;;;;4.05;2.75;;;34.40;34.00;;;;;;5048213;28;20089;-87
2022/08/13 13:05:57;;;;;;;5.50;3.50;;;34.50;34.40;;;;;;5048462;28;20096;-84
2022/08/13 13:08:28;;;;;;;3.65;2.90;;;34.60;33.60;;;;;;5020599;28;20017;-85
2022/08/13 13:10:56;;;;;;;16.13;3.30;;;34.70;33.10;;;;;;5035904;28;20075;-86
2022/08/13 13:13:24;;;;;;;3.40;2.97;;;34.80;33.10;;;;;;5028931;28;20042;-83
2022/08/13 13:15:51;;;;;;;5.45;3.35;;;34.90;33.20;;;;;;5039611;28;20021;-83
2022/08/13 13:18:22;;;;;;;5.63;3.30;;;35.00;33.10;;;;;;5036048;28;20041;-84
2022/08/13 13:20:49;;;;;;;5.60;2.92;;;35.10;32.80;;;;;;5057046;28;20043;-83
2022/08/13 13:23:17;;;;;;;4.13;2.65;;;35.20;32.80;;;;;;5015269;28;20041;-84